Accueil
METAR-TAF:

METAR-TAF

Aéroports :

Grazzanise, Italie

latitude: 41-03N, longitude: 014-04E, altitude: 9 m

Observation

Le bulletin a été fait il y a 1 heure et 24 minutes, à 17:55 UTC
Vent 12 kt de est/nord-est
Température 10°C
Humidité 82%
Pression 1014 hPa
Visibilité 10 km ou plus
Nuages épars à une hauteur de 3000 ft
Nuages fragmentés à une hauteur de 6000 ft

METAR: LIRM 311755Z 06012KT 9999 SCT030 BKN060 10/07 Q1014 RMK OVC VIS MIN 9999 WIND THR06 04013KT BLU

Heure: 21:19 (19:19 UTC)

Prévision

Le bulletin a été fait il y a 2 heures et 19 minutes, à 17:00 UTC
Prévision valable du 31 à 18 UTC au 01 à 03 UTC
Vent 15 kt de nord/nord-est
Visibilité 10 km ou plus
Nuages épars à une hauteur de 2000 ft
Nuages épars à une hauteur de 6000 ft
Temporairement
du 31 à 20 UTC au 31 à 24 UTC
Nuages fragmentés à une hauteur de 3000 ft
pluie

TAF: LIRM 311700Z 3118/0103 03015KT 9999 SCT020 SCT060 TEMPO 3120/3124 RA BKN030

Observations et prévisions météorologiques de plus de 4000 aéroports (messages METAR et TAF).

Les stations disponibles sont représentées par des disques jaunes et rouges sur la carte.

Passer la souris dessus pour voir le nom de la station.

Cliquer dessus pour voir les observations et prévisions météorologiques.

Pour changer de carte: cliquez sur les boutons verts avec une croix noire pour zoomer, sur le bouton vert avec un tiret pour effectuer un zoom arrière, ou sur les flèches vertes pour les cartes adjacentes.


METAR-TAF: